Time;durP1;ratioP1;P1;durP2;ratioP2;P2;SDS_P1;SDS_P2;PMS_P1;PMS_P2;Temp;Humidity;BMP_temperature;BMP_pressure;BME280_temperature;BME280_humidity;BME280_pressure;Samples;Min_cycle;Max_cycle;Signal;HPM_P1;HPM_P2
2021/05/28 00:00:31;;;;;;;8.20;7.33;;;;;;;;;;5036606;28;20188;-81
2021/05/28 00:02:56;;;;;;;10.10;7.87;;;;;;;;;;5035144;28;20535;-81
2021/05/28 00:05:22;;;;;;;9.80;8.80;;;;;;;;;;5036054;28;20171;-81
2021/05/28 00:07:47;;;;;;;12.37;9.07;;;;;;;;;;5036053;28;20571;-81
2021/05/28 00:10:13;;;;;;;10.33;8.53;;;;;;;;;;5035980;28;20601;-81
2021/05/28 00:12:40;;;;;;;11.63;8.87;;;;;;;;;;5036042;28;20571;-81
2021/05/28 00:15:07;;;;;;;10.20;8.30;;;;;;;;;;5043974;28;20176;-81
2021/05/28 00:17:33;;;;;;;10.70;8.97;;;;;;;;;;5053787;28;20202;-81
2021/05/28 00:19:58;;;;;;;11.40;9.17;;;;;;;;;;5055453;28;20624;-81
2021/05/28 00:22:23;;;;;;;11.83;9.23;;;;;;;;;;5056053;28;20171;-81
2021/05/28 00:24:49;;;;;;;12.67;9.17;;;;;;;;;;5055680;28;20519;-81
2021/05/28 00:27:14;;;;;;;10.37;8.90;;;;;;;;;;5055732;28;20214;-81
2021/05/28 00:29:39;;;;;;;10.93;9.30;;;;;;;;;;5055599;28;20171;-81
2021/05/28 00:32:05;;;;;;;11.93;9.30;;;;;;;;;;5055497;28;20239;-81
2021/05/28 00:34:30;;;;;;;13.37;9.73;;;;;;;;;;5055230;28;20301;-81
2021/05/28 00:36:55;;;;;;;10.27;9.17;;;;;;;;;;5055474;28;20160;-81
2021/05/28 00:39:21;;;;;;;11.07;10.03;;;;;;;;;;5055231;28;20164;-81
2021/05/28 00:41:46;;;;;;;13.20;9.47;;;;;;;;;;5055328;28;20202;-81
2021/05/28 00:44:12;;;;;;;11.63;9.53;;;;;;;;;;5055345;28;20255;-81
2021/05/28 00:46:37;;;;;;;9.27;8.37;;;;;;;;;;5054890;28;20292;-81
2021/05/28 00:49:02;;;;;;;11.10;9.10;;;;;;;;;;5055597;28;20179;-80
2021/05/28 00:51:28;;;;;;;10.10;9.10;;;;;;;;;;5055310;28;20172;-80
2021/05/28 00:53:53;;;;;;;11.20;8.70;;;;;;;;;;5055535;28;20255;-80
2021/05/28 00:56:19;;;;;;;9.77;8.80;;;;;;;;;;5053809;28;20535;-80
2021/05/28 00:58:46;;;;;;;9.73;8.67;;;;;;;;;;5055061;28;20172;-80
2021/05/28 01:01:11;;;;;;;10.10;8.53;;;;;;;;;;5054758;28;20713;-80
2021/05/28 01:03:36;;;;;;;10.77;8.47;;;;;;;;;;5055023;28;20171;-80
2021/05/28 01:06:02;;;;;;;9.10;7.90;;;;;;;;;;5054654;28;20160;-81
2021/05/28 01:08:27;;;;;;;8.57;7.77;;;;;;;;;;5055556;28;20207;-81
2021/05/28 01:10:53;;;;;;;8.87;7.97;;;;;;;;;;5054990;28;20168;-81
2021/05/28 01:13:18;;;;;;;10.03;8.27;;;;;;;;;;5053500;28;20263;-81
2021/05/28 01:15:43;;;;;;;9.67;8.83;;;;;;;;;;5054711;28;20167;-81
2021/05/28 01:18:09;;;;;;;9.37;8.47;;;;;;;;;;5054661;28;20164;-81
2021/05/28 01:20:35;;;;;;;8.73;7.93;;;;;;;;;;5054781;28;20199;-81
2021/05/28 01:23:01;;;;;;;10.50;8.73;;;;;;;;;;5054907;28;20175;-81
2021/05/28 01:25:26;;;;;;;9.43;8.40;;;;;;;;;;5054940;28;20168;-81
2021/05/28 01:27:52;;;;;;;11.07;9.17;;;;;;;;;;5054186;28;20188;-81
2021/05/28 01:30:17;;;;;;;10.30;8.60;;;;;;;;;;5054538;28;20226;-81
2021/05/28 01:32:44;;;;;;;9.47;8.47;;;;;;;;;;5055171;28;20236;-81
2021/05/28 01:35:10;;;;;;;10.03;8.67;;;;;;;;;;5054744;28;20195;-81
2021/05/28 01:37:35;;;;;;;10.13;8.63;;;;;;;;;;5054619;28;20172;-81
2021/05/28 01:40:00;;;;;;;11.23;9.00;;;;;;;;;;5053959;28;20179;-81
2021/05/28 01:42:26;;;;;;;9.57;8.57;;;;;;;;;;5054530;28;20175;-81
2021/05/28 01:44:53;;;;;;;9.47;8.53;;;;;;;;;;5054024;28;20191;-81
2021/05/28 01:47:18;;;;;;;9.73;8.73;;;;;;;;;;5054291;28;20255;-81
2021/05/28 01:49:44;;;;;;;10.40;9.30;;;;;;;;;;5053948;28;20572;-81
2021/05/28 01:52:09;;;;;;;10.47;9.43;;;;;;;;;;5054377;28;20233;-81
2021/05/28 01:54:37;;;;;;;10.17;9.03;;;;;;;;;;5053797;28;20572;-81
2021/05/28 01:57:03;;;;;;;14.57;8.83;;;;;;;;;;5054244;28;20206;-81
2021/05/28 01:59:28;;;;;;;9.50;7.90;;;;;;;;;;5053964;28;20636;-81
2021/05/28 02:01:54;;;;;;;11.63;8.83;;;;;;;;;;5053604;28;20210;-81
2021/05/28 02:04:20;;;;;;;9.13;8.23;;;;;;;;;;5054018;28;20626;-81
2021/05/28 02:06:45;;;;;;;8.97;7.90;;;;;;;;;;5053727;28;20172;-81
2021/05/28 02:09:11;;;;;;;8.50;7.70;;;;;;;;;;5054562;28;20168;-81
2021/05/28 02:11:36;;;;;;;9.17;7.37;;;;;;;;;;5053909;28;20663;-81
2021/05/28 02:14:02;;;;;;;9.00;7.53;;;;;;;;;;5053797;28;20164;-81
2021/05/28 02:16:27;;;;;;;8.07;7.27;;;;;;;;;;5053764;28;20532;-81
2021/05/28 02:18:52;;;;;;;8.27;7.47;;;;;;;;;;5053775;28;20171;-81
2021/05/28 02:21:18;;;;;;;8.63;7.80;;;;;;;;;;5053951;28;20298;-81
2021/05/28 02:23:43;;;;;;;7.80;7.07;;;;;;;;;;5053789;28;20218;-81
2021/05/28 02:26:08;;;;;;;9.73;7.40;;;;;;;;;;5053449;28;20170;-81
2021/05/28 02:28:34;;;;;;;7.93;7.00;;;;;;;;;;5053641;28;20164;-81
2021/05/28 02:30:59;;;;;;;8.73;7.90;;;;;;;;;;5053665;28;20184;-81
2021/05/28 02:33:24;;;;;;;8.43;7.63;;;;;;;;;;5053315;28;20279;-81
2021/05/28 02:35:49;;;;;;;8.33;7.53;;;;;;;;;;5053261;28;20167;-81
2021/05/28 02:38:15;;;;;;;9.03;8.13;;;;;;;;;;5053810;28;20251;-81
2021/05/28 02:40:40;;;;;;;8.47;7.67;;;;;;;;;;5056773;28;20294;-80
2021/05/28 02:43:05;;;;;;;8.70;7.80;;;;;;;;;;5058334;28;20171;-81
2021/05/28 02:45:31;;;;;;;9.17;7.23;;;;;;;;;;5057635;28;20609;-81
2021/05/28 02:47:58;;;;;;;8.03;7.00;;;;;;;;;;5057521;28;20175;-81
2021/05/28 02:50:23;;;;;;;8.10;7.30;;;;;;;;;;5058043;28;20608;-81
2021/05/28 02:52:48;;;;;;;7.93;7.23;;;;;;;;;;5057458;28;20175;-81
2021/05/28 02:55:14;;;;;;;7.80;7.10;;;;;;;;;;5057439;28;20163;-81
2021/05/28 02:57:40;;;;;;;8.53;7.73;;;;;;;;;;5057410;28;20233;-81
2021/05/28 03:00:05;;;;;;;11.20;8.10;;;;;;;;;;5057843;28;20172;-81
2021/05/28 03:02:31;;;;;;;9.47;8.57;;;;;;;;;;5056925;28;20188;-81
2021/05/28 03:04:56;;;;;;;9.03;8.23;;;;;;;;;;5057517;28;20190;-81
2021/05/28 03:07:21;;;;;;;10.03;8.93;;;;;;;;;;5057256;28;20175;-81
2021/05/28 03:09:47;;;;;;;9.53;8.60;;;;;;;;;;5057440;28;20171;-81
2021/05/28 03:12:12;;;;;;;8.70;7.90;;;;;;;;;;5057354;28;20180;-81
2021/05/28 03:14:37;;;;;;;9.30;8.40;;;;;;;;;;5057041;28;20176;-81
2021/05/28 03:17:03;;;;;;;8.83;8.00;;;;;;;;;;5056784;28;20251;-81
2021/05/28 03:19:33;;;;;;;11.47;7.47;;;;;;;;;;5057394;28;20259;-81
2021/05/28 03:24:36;;;;;;;8.70;7.87;;;;;;;;;;5056949;28;20263;-81
2021/05/28 03:27:01;;;;;;;10.37;7.83;;;;;;;;;;5056952;28;20271;-81
2021/05/28 03:29:27;;;;;;;8.93;7.73;;;;;;;;;;5056843;28;20196;-81
2021/05/28 03:31:52;;;;;;;8.10;7.33;;;;;;;;;;5056435;28;20236;-81
2021/05/28 03:34:17;;;;;;;9.10;8.20;;;;;;;;;;5056475;28;20168;-81
2021/05/28 03:36:43;;;;;;;9.47;7.87;;;;;;;;;;5057054;28;20514;-81
2021/05/28 03:39:08;;;;;;;8.30;7.43;;;;;;;;;;5056970;28;20214;-81
2021/05/28 03:41:34;;;;;;;8.50;7.70;;;;;;;;;;5056785;28;20227;-81
2021/05/28 03:43:59;;;;;;;9.47;7.97;;;;;;;;;;5056233;28;20210;-81
2021/05/28 03:46:25;;;;;;;10.17;7.90;;;;;;;;;;5056610;28;20505;-81
2021/05/28 03:48:50;;;;;;;10.27;7.90;;;;;;;;;;5056965;28;20168;-81
2021/05/28 03:51:15;;;;;;;9.97;7.47;;;;;;;;;;5055619;28;20168;-81
2021/05/28 03:53:41;;;;;;;10.03;7.40;;;;;;;;;;5056383;28;20259;-81
2021/05/28 03:56:06;;;;;;;7.87;7.17;;;;;;;;;;5056153;28;20171;-81
2021/05/28 03:58:31;;;;;;;8.30;7.37;;;;;;;;;;5056054;28;20172;-81
2021/05/28 04:00:57;;;;;;;8.13;7.33;;;;;;;;;;5056135;28;20200;-81
2021/05/28 04:03:22;;;;;;;7.83;7.00;;;;;;;;;;5056230;28;20704;-81
2021/05/28 04:05:47;;;;;;;7.40;6.70;;;;;;;;;;5056137;28;20176;-81
2021/05/28 04:08:12;;;;;;;8.00;7.20;;;;;;;;;;5056385;28;20235;-81
2021/05/28 04:10:38;;;;;;;7.57;6.87;;;;;;;;;;5056286;28;20175;-81
2021/05/28 04:13:03;;;;;;;7.83;7.03;;;;;;;;;;5056079;28;20229;-81
2021/05/28 04:15:28;;;;;;;7.73;7.07;;;;;;;;;;5056037;28;20257;-81
2021/05/28 04:17:54;;;;;;;8.40;7.60;;;;;;;;;;5056201;28;20172;-81
2021/05/28 04:20:19;;;;;;;7.57;6.90;;;;;;;;;;5055822;28;20164;-81
2021/05/28 04:22:45;;;;;;;8.23;7.30;;;;;;;;;;5055879;28;20168;-81
2021/05/28 04:25:10;;;;;;;8.00;7.27;;;;;;;;;;5055782;28;20179;-81
2021/05/28 04:27:36;;;;;;;8.07;7.37;;;;;;;;;;5055435;28;20255;-82
2021/05/28 04:30:02;;;;;;;7.93;7.28;;;;;;;;;;5055551;28;20225;-82
2021/05/28 04:32:27;;;;;;;8.10;7.40;;;;;;;;;;5055094;28;20239;-82
2021/05/28 04:34:52;;;;;;;7.30;6.68;;;;;;;;;;5056017;28;20168;-82
2021/05/28 04:37:18;;;;;;;7.97;6.93;;;;;;;;;;5055283;28;20168;-82
2021/05/28 04:39:43;;;;;;;7.53;6.80;;;;;;;;;;5056013;28;20186;-82
2021/05/28 04:42:08;;;;;;;7.05;6.45;;;;;;;;;;5055135;28;20204;-82
2021/05/28 04:44:34;;;;;;;7.28;6.57;;;;;;;;;;5055749;28;20168;-83
2021/05/28 04:46:59;;;;;;;7.05;6.35;;;;;;;;;;5055343;28;20686;-83
2021/05/28 04:49:24;;;;;;;8.48;6.60;;;;;;;;;;5055433;28;20612;-82
2021/05/28 04:51:50;;;;;;;7.00;6.25;;;;;;;;;;5055068;28;20693;-83
2021/05/28 04:54:16;;;;;;;6.50;5.82;;;;;;;;;;5054983;28;20171;-82
2021/05/28 04:56:41;;;;;;;7.15;6.45;;;;;;;;;;5054914;28;20172;-82
2021/05/28 04:59:07;;;;;;;6.53;6.03;;;;;;;;;;5055175;28;20176;-83
2021/05/28 05:01:32;;;;;;;6.90;6.20;;;;;;;;;;5055271;28;20195;-83
2021/05/28 05:03:57;;;;;;;7.15;5.90;;;;;;;;;;5053689;28;20536;-83
2021/05/28 05:06:22;;;;;;;5.78;5.20;;;;;;;;;;5055007;28;20175;-83
2021/05/28 05:08:48;;;;;;;5.63;5.22;;;;;;;;;;5054690;28;20171;-84
2021/05/28 05:11:13;;;;;;;7.05;5.28;;;;;;;;;;5055234;28;20190;-84
2021/05/28 05:13:38;;;;;;;5.60;5.20;;;;;;;;;;5054875;28;20174;-83
2021/05/28 05:16:04;;;;;;;5.53;5.13;;;;;;;;;;5062137;28;20639;-83
2021/05/28 05:18:29;;;;;;;7.03;5.60;;;;;;;;;;5060068;28;20187;-84
2021/05/28 05:20:55;;;;;;;7.57;5.85;;;;;;;;;;5054749;28;20195;-83
2021/05/28 05:23:20;;;;;;;6.30;5.80;;;;;;;;;;5055020;28;20176;-83
2021/05/28 05:25:46;;;;;;;6.30;5.80;;;;;;;;;;5054660;28;20175;-83
2021/05/28 05:28:11;;;;;;;7.50;6.10;;;;;;;;;;5054464;28;20171;-83
2021/05/28 05:30:37;;;;;;;7.13;6.07;;;;;;;;;;5055394;28;20214;-83
2021/05/28 05:33:02;;;;;;;8.70;6.28;;;;;;;;;;5054573;28;20579;-83
2021/05/28 05:35:28;;;;;;;7.20;6.60;;;;;;;;;;5054373;28;20176;-83
2021/05/28 05:37:53;;;;;;;6.22;5.72;;;;;;;;;;5054436;28;20180;-83
2021/05/28 05:40:18;;;;;;;6.40;5.85;;;;;;;;;;5054694;28;20238;-83
2021/05/28 05:42:44;;;;;;;6.38;5.80;;;;;;;;;;5054353;28;20175;-83
2021/05/28 05:45:10;;;;;;;5.70;5.30;;;;;;;;;;5054604;28;20263;-83
2021/05/28 05:47:35;;;;;;;6.45;5.32;;;;;;;;;;5054579;28;20320;-83
2021/05/28 05:50:00;;;;;;;5.47;5.07;;;;;;;;;;5054574;28;20618;-83
2021/05/28 05:52:26;;;;;;;6.05;5.55;;;;;;;;;;5054522;28;20647;-83
2021/05/28 05:54:51;;;;;;;6.65;5.82;;;;;;;;;;5053788;28;20671;-83
2021/05/28 05:57:17;;;;;;;6.35;5.80;;;;;;;;;;5054059;28;20543;-83
2021/05/28 05:59:42;;;;;;;6.20;5.70;;;;;;;;;;5053726;28;20217;-83
2021/05/28 06:02:08;;;;;;;5.73;5.00;;;;;;;;;;5053656;28;20656;-83
2021/05/28 06:04:33;;;;;;;6.60;5.93;;;;;;;;;;5053699;28;20245;-83
2021/05/28 06:06:59;;;;;;;6.43;5.90;;;;;;;;;;5054070;28;20172;-83
2021/05/28 06:09:24;;;;;;;5.80;5.30;;;;;;;;;;5054149;28;20620;-83
2021/05/28 06:11:49;;;;;;;6.87;5.83;;;;;;;;;;5053892;28;20178;-83
2021/05/28 06:14:15;;;;;;;6.13;5.63;;;;;;;;;;5053713;28;20203;-83
2021/05/28 06:16:40;;;;;;;7.45;6.10;;;;;;;;;;5053786;28;20497;-82
2021/05/28 06:19:05;;;;;;;7.03;6.35;;;;;;;;;;5054155;28;20160;-83
2021/05/28 06:21:31;;;;;;;6.40;5.90;;;;;;;;;;5053958;28;20287;-85
2021/05/28 06:23:57;;;;;;;5.88;5.38;;;;;;;;;;5053712;28;20206;-85
2021/05/28 06:26:22;;;;;;;6.43;5.82;;;;;;;;;;5054061;28;20195;-85
2021/05/28 06:28:48;;;;;;;6.55;5.57;;;;;;;;;;5053760;28;20163;-85
2021/05/28 06:31:13;;;;;;;5.70;5.20;;;;;;;;;;5053690;28;20318;-84
2021/05/28 06:33:39;;;;;;;6.00;5.40;;;;;;;;;;5053518;28;20184;-84
2021/05/28 06:36:04;;;;;;;6.20;5.63;;;;;;;;;;5053636;28;20179;-84
2021/05/28 06:38:30;;;;;;;5.00;4.63;;;;;;;;;;5053292;28;20197;-84
2021/05/28 06:40:55;;;;;;;5.43;4.82;;;;;;;;;;5053258;28;20199;-83
2021/05/28 06:43:20;;;;;;;5.60;5.13;;;;;;;;;;5052446;28;20180;-83
2021/05/28 06:45:46;;;;;;;5.55;4.93;;;;;;;;;;5053353;28;20255;-83
2021/05/28 06:48:11;;;;;;;5.18;4.78;;;;;;;;;;5053534;28;20524;-84
2021/05/28 06:50:40;;;;;;;5.20;4.75;;;;;;;;;;5053487;28;20306;-84
2021/05/28 06:53:05;;;;;;;5.45;4.93;;;;;;;;;;5053855;28;20164;-83
2021/05/28 06:55:31;;;;;;;5.30;4.80;;;;;;;;;;5053511;28;20258;-85
2021/05/28 06:57:56;;;;;;;6.22;5.20;;;;;;;;;;5053728;28;20540;-85
2021/05/28 07:00:22;;;;;;;5.78;5.20;;;;;;;;;;5052081;28;20225;-87
2021/05/28 07:02:47;;;;;;;4.82;4.30;;;;;;;;;;5053370;28;20580;-86
2021/05/28 07:05:13;;;;;;;6.38;4.30;;;;;;;;;;5052284;28;20176;-86
2021/05/28 07:07:40;;;;;;;4.78;4.38;;;;;;;;;;5053713;28;20516;-85
2021/05/28 07:10:05;;;;;;;6.85;4.85;;;;;;;;;;5052774;28;20217;-84
2021/05/28 07:12:31;;;;;;;5.07;4.20;;;;;;;;;;5053657;28;20164;-83
2021/05/28 07:14:56;;;;;;;4.75;4.00;;;;;;;;;;5053243;28;20171;-84
2021/05/28 07:17:22;;;;;;;4.28;3.88;;;;;;;;;;5052920;28;20247;-84
2021/05/28 07:19:47;;;;;;;5.22;3.45;;;;;;;;;;5053286;28;20167;-85
2021/05/28 07:22:13;;;;;;;3.00;2.90;;;;;;;;;;5052315;28;20240;-84
2021/05/28 07:24:38;;;;;;;2.85;2.65;;;;;;;;;;5053514;28;20175;-84
2021/05/28 07:27:04;;;;;;;3.30;3.00;;;;;;;;;;5054958;28;20176;-84
2021/05/28 07:29:29;;;;;;;3.53;3.22;;;;;;;;;;5056694;28;20226;-85
2021/05/28 07:31:55;;;;;;;3.42;3.13;;;;;;;;;;5056347;28;20251;-84
2021/05/28 07:34:21;;;;;;;3.20;2.90;;;;;;;;;;5057076;28;20171;-84
2021/05/28 07:36:46;;;;;;;2.83;2.72;;;;;;;;;;5057036;28;20163;-85
2021/05/28 07:39:12;;;;;;;2.58;2.47;;;;;;;;;;5056503;28;20221;-85
2021/05/28 07:41:38;;;;;;;2.60;2.40;;;;;;;;;;5056630;28;20207;-85
2021/05/28 07:44:04;;;;;;;1.30;1.20;;;;;;;;;;5049454;28;21191;-85
2021/05/28 07:46:30;;;;;;;1.92;1.90;;;;;;;;;;5055067;28;20180;-86
2021/05/28 07:48:56;;;;;;;2.40;2.22;;;;;;;;;;5053616;28;20264;-86
2021/05/28 07:51:21;;;;;;;2.60;2.50;;;;;;;;;;5056412;28;20229;-87
2021/05/28 07:53:47;;;;;;;2.60;2.40;;;;;;;;;;5055719;28;20183;-87
2021/05/28 07:56:12;;;;;;;2.05;1.95;;;;;;;;;;5056157;28;20214;-85
2021/05/28 07:58:38;;;;;;;2.22;2.10;;;;;;;;;;5056439;28;20641;-86
2021/05/28 08:01:04;;;;;;;4.07;2.50;;;;;;;;;;5056201;28;20191;-88
2021/05/28 08:03:30;;;;;;;2.67;2.22;;;;;;;;;;5058135;28;20550;-87
2021/05/28 08:05:56;;;;;;;2.05;1.90;;;;;;;;;;5080275;28;20184;-87
2021/05/28 08:08:27;;;;;;;2.03;1.92;;;;;;;;;;5080301;28;20174;-87
2021/05/28 08:10:54;;;;;;;2.70;2.50;;;;;;;;;;5079155;28;20176;-88
2021/05/28 08:13:20;;;;;;;3.33;2.33;;;;;;;;;;5081034;28;20187;-87
2021/05/28 08:15:47;;;;;;;2.85;2.65;;;;;;;;;;5080854;28;20164;-87
2021/05/28 08:18:12;;;;;;;3.00;2.80;;;;;;;;;;5080548;28;20260;-87
2021/05/28 08:20:38;;;;;;;2.70;2.60;;;;;;;;;;5046454;28;20228;-86
2021/05/28 08:23:03;;;;;;;2.83;2.63;;;;;;;;;;5047286;28;20265;-86
2021/05/28 08:25:28;;;;;;;2.88;2.67;;;;;;;;;;5055533;28;20253;-88
2021/05/28 08:27:54;;;;;;;2.70;2.60;;;;;;;;;;5055794;28;20172;-85
2021/05/28 08:30:20;;;;;;;2.85;2.63;;;;;;;;;;5055389;28;20171;-86
2021/05/28 08:32:45;;;;;;;3.00;2.80;;;;;;;;;;5053715;28;20691;-87
2021/05/28 08:35:11;;;;;;;3.15;2.83;;;;;;;;;;5055336;28;20164;-86
2021/05/28 08:37:37;;;;;;;2.83;2.65;;;;;;;;;;5055146;28;20199;-86
2021/05/28 08:40:03;;;;;;;4.05;2.58;;;;;;;;;;5049152;28;20259;-87
2021/05/28 08:42:29;;;;;;;2.72;2.50;;;;;;;;;;5046302;28;20204;-87
2021/05/28 08:44:55;;;;;;;2.90;2.70;;;;;;;;;;5046277;28;20194;-86
2021/05/28 08:47:21;;;;;;;3.53;2.50;;;;;;;;;;5047136;28;20672;-87
2021/05/28 08:49:47;;;;;;;3.08;2.88;;;;;;;;;;5039461;28;20579;-87
2021/05/28 08:52:13;;;;;;;2.90;2.42;;;;;;;;;;5042980;28;20176;-87
2021/05/28 08:54:38;;;;;;;2.90;2.70;;;;;;;;;;5055198;28;20171;-86
2021/05/28 08:57:04;;;;;;;2.88;2.70;;;;;;;;;;5054909;28;20200;-86
2021/05/28 08:59:29;;;;;;;3.17;2.83;;;;;;;;;;5055350;28;20635;-86
2021/05/28 09:01:54;;;;;;;2.78;2.58;;;;;;;;;;5046459;28;20283;-85
2021/05/28 09:04:20;;;;;;;2.55;2.35;;;;;;;;;;5052522;28;20210;-86
2021/05/28 09:06:46;;;;;;;2.90;2.70;;;;;;;;;;5052510;28;20624;-88
2021/05/28 09:09:15;;;;;;;2.67;2.50;;;;;;;;;;5054940;28;20574;-88
2021/05/28 09:11:54;;;;;;;2.30;2.20;;;;;;;;;;5054781;28;20333;-86
2021/05/28 09:14:28;;;;;;;2.83;2.63;;;;;;;;;;5054809;28;20171;-85
2021/05/28 09:16:54;;;;;;;2.95;2.75;;;;;;;;;;5054415;28;20163;-85
2021/05/28 09:19:22;;;;;;;2.78;2.60;;;;;;;;;;5054573;28;20551;-84
2021/05/28 09:21:53;;;;;;;4.47;2.80;;;;;;;;;;5054001;28;20200;-86
2021/05/28 09:24:26;;;;;;;2.75;2.55;;;;;;;;;;5052260;28;20175;-85
2021/05/28 09:26:51;;;;;;;2.92;2.72;;;;;;;;;;5053331;28;20176;-86
2021/05/28 09:29:16;;;;;;;2.42;2.33;;;;;;;;;;5053736;28;20175;-85
2021/05/28 09:31:42;;;;;;;2.70;2.50;;;;;;;;;;5051911;28;20255;-85
2021/05/28 09:34:07;;;;;;;2.60;2.40;;;;;;;;;;5052357;28;20666;-85
2021/05/28 09:36:36;;;;;;;2.80;2.60;;;;;;;;;;5052359;28;20176;-85
2021/05/28 09:39:09;;;;;;;3.22;2.58;;;;;;;;;;5052752;28;20160;-85
2021/05/28 09:41:37;;;;;;;2.65;2.50;;;;;;;;;;5052388;28;20675;-85
2021/05/28 09:44:13;;;;;;;3.95;2.50;;;;;;;;;;5051251;28;20639;-85
2021/05/28 09:46:58;;;;;;;4.10;2.30;;;;;;;;;;5052490;28;20179;-85
2021/05/28 09:49:25;;;;;;;2.47;2.25;;;;;;;;;;5051831;28;20195;-85
2021/05/28 09:52:07;;;;;;;2.42;2.20;;;;;;;;;;5053490;28;20178;-85
2021/05/28 09:54:32;;;;;;;2.17;1.98;;;;;;;;;;5032885;28;20180;-85
2021/05/28 09:56:58;;;;;;;2.70;2.08;;;;;;;;;;5034358;28;20181;-85
2021/05/28 09:59:23;;;;;;;2.70;1.75;;;;;;;;;;5039893;28;20186;-85
2021/05/28 10:01:58;;;;;;;2.25;1.88;;;;;;;;;;5044718;28;20243;-85
2021/05/28 10:04:24;;;;;;;3.28;2.25;;;;;;;;;;5042205;28;20251;-85
2021/05/28 10:06:49;;;;;;;2.13;1.92;;;;;;;;;;5034097;28;20588;-85
2021/05/28 10:09:15;;;;;;;2.35;2.25;;;;;;;;;;5033851;28;20167;-85
2021/05/28 10:11:40;;;;;;;2.10;2.00;;;;;;;;;;5033650;28;20196;-85
2021/05/28 10:14:07;;;;;;;2.78;2.58;;;;;;;;;;5034018;28;20165;-85
2021/05/28 10:16:32;;;;;;;2.50;2.30;;;;;;;;;;5033898;28;20172;-85
2021/05/28 10:18:58;;;;;;;3.40;2.30;;;;;;;;;;5033940;28;20173;-86
2021/05/28 10:21:24;;;;;;;3.15;2.60;;;;;;;;;;5033955;28;20580;-85
2021/05/28 10:23:50;;;;;;;6.18;2.33;;;;;;;;;;5046991;28;20198;-85
2021/05/28 10:26:16;;;;;;;3.50;2.00;;;;;;;;;;5053851;28;20178;-85
2021/05/28 10:28:44;;;;;;;2.33;1.75;;;;;;;;;;5053698;28;20164;-86
2021/05/28 10:31:10;;;;;;;2.28;1.63;;;;;;;;;;5053761;28;20234;-86
2021/05/28 10:33:36;;;;;;;3.67;1.48;;;;;;;;;;5054129;28;20183;-85
2021/05/28 10:36:03;;;;;;;1.40;1.40;;;;;;;;;;5053331;28;20191;-85
2021/05/28 10:38:34;;;;;;;2.70;1.50;;;;;;;;;;5053735;28;20168;-85
2021/05/28 10:40:59;;;;;;;2.83;1.95;;;;;;;;;;5053189;28;20214;-85
2021/05/28 10:43:26;;;;;;;2.10;1.50;;;;;;;;;;5052427;28;20555;-87
2021/05/28 10:46:01;;;;;;;1.90;1.80;;;;;;;;;;5053562;28;20194;-87
2021/05/28 10:48:42;;;;;;;2.28;1.90;;;;;;;;;;5052626;28;20523;-86
2021/05/28 10:51:14;;;;;;;2.58;2.00;;;;;;;;;;5053143;28;20648;-86
2021/05/28 10:54:00;;;;;;;4.88;3.80;;;;;;;;;;5051990;28;20207;-86
2021/05/28 10:56:26;;;;;;;2.78;2.58;;;;;;;;;;5052996;28;20175;-87
2021/05/28 10:59:10;;;;;;;1.98;1.88;;;;;;;;;;5053059;28;20175;-86
2021/05/28 11:01:49;;;;;;;2.20;2.10;;;;;;;;;;5056342;28;20191;-86
2021/05/28 11:04:18;;;;;;;1.70;1.60;;;;;;;;;;5057315;28;20179;-86
2021/05/28 11:06:55;;;;;;;1.73;1.63;;;;;;;;;;5057493;28;20695;-87
2021/05/28 11:09:39;;;;;;;2.03;1.90;;;;;;;;;;5057355;28;20164;-86
2021/05/28 11:12:14;;;;;;;2.10;2.00;;;;;;;;;;5057414;28;20187;-86
2021/05/28 11:15:00;;;;;;;2.00;1.90;;;;;;;;;;5057475;28;20186;-86
2021/05/28 11:17:25;;;;;;;2.03;1.85;;;;;;;;;;5056056;28;20551;-86
2021/05/28 11:19:53;;;;;;;2.40;2.28;;;;;;;;;;5048335;28;20176;-87
2021/05/28 11:22:28;;;;;;;2.00;1.90;;;;;;;;;;5047392;28;20290;-88
2021/05/28 11:24:53;;;;;;;3.03;2.00;;;;;;;;;;5057611;28;20167;-87
2021/05/28 11:27:24;;;;;;;3.00;2.58;;;;;;;;;;5057025;28;20171;-86
2021/05/28 11:30:16;;;;;;;3.13;2.20;;;;;;;;;;5055668;28;20679;-86
2021/05/28 11:32:44;;;;;;;2.57;2.20;;;;;;;;;;5054343;28;20326;-85
2021/05/28 11:35:14;;;;;;;2.25;2.15;;;;;;;;;;5047650;28;20180;-87
2021/05/28 11:37:51;;;;;;;2.42;2.13;;;;;;;;;;5048473;28;20214;-88
2021/05/28 11:40:24;;;;;;;2.75;2.35;;;;;;;;;;5055376;28;20649;-87
2021/05/28 11:42:51;;;;;;;2.50;2.40;;;;;;;;;;5047248;28;20181;-87
2021/05/28 11:45:17;;;;;;;2.80;2.60;;;;;;;;;;5047977;28;20175;-87
2021/05/28 11:47:43;;;;;;;2.60;2.35;;;;;;;;;;5053846;28;20229;-86
2021/05/28 11:50:12;;;;;;;2.55;2.30;;;;;;;;;;5052569;28;20188;-86
2021/05/28 11:52:37;;;;;;;2.85;2.40;;;;;;;;;;5045096;28;20177;-86
2021/05/28 11:55:11;;;;;;;3.80;2.40;;;;;;;;;;5044557;28;20183;-87
2021/05/28 11:57:37;;;;;;;2.28;2.00;;;;;;;;;;5044987;28;20214;-87
2021/05/28 12:00:09;;;;;;;2.53;2.40;;;;;;;;;;5046743;28;20252;-86
2021/05/28 12:02:46;;;;;;;2.30;2.20;;;;;;;;;;5045745;28;20203;-87
2021/05/28 12:05:16;;;;;;;2.75;2.20;;;;;;;;;;5044396;28;20659;-85
2021/05/28 12:07:42;;;;;;;2.80;2.60;;;;;;;;;;5044424;28;20200;-85
2021/05/28 12:10:09;;;;;;;3.10;2.60;;;;;;;;;;5046546;28;20678;-85
2021/05/28 12:12:53;;;;;;;3.00;2.72;;;;;;;;;;5045036;28;20172;-84
2021/05/28 12:15:20;;;;;;;3.20;2.58;;;;;;;;;;5046509;28;20540;-84
2021/05/28 12:17:45;;;;;;;2.70;2.60;;;;;;;;;;5044181;28;20255;-84
2021/05/28 12:20:15;;;;;;;2.87;2.67;;;;;;;;;;5045923;28;20219;-83
2021/05/28 12:23:00;;;;;;;3.10;2.90;;;;;;;;;;5045946;28;20259;-84
2021/05/28 12:25:25;;;;;;;2.95;2.75;;;;;;;;;;5045551;28;20176;-85
2021/05/28 12:27:51;;;;;;;2.97;2.60;;;;;;;;;;5041978;28;20578;-84
2021/05/28 12:30:23;;;;;;;2.95;2.75;;;;;;;;;;5046226;28;20179;-85
2021/05/28 12:32:48;;;;;;;2.65;2.53;;;;;;;;;;5041849;28;20236;-85
2021/05/28 12:35:14;;;;;;;2.53;2.42;;;;;;;;;;5045585;28;20260;-85
2021/05/28 12:37:59;;;;;;;2.55;2.40;;;;;;;;;;5044382;28;20241;-85
2021/05/28 12:40:26;;;;;;;3.47;2.53;;;;;;;;;;5046010;28;20168;-85
2021/05/28 12:42:55;;;;;;;2.83;2.72;;;;;;;;;;5043378;28;20211;-84
2021/05/28 12:45:21;;;;;;;2.95;2.75;;;;;;;;;;5046032;28;20180;-86
2021/05/28 12:47:46;;;;;;;3.10;2.88;;;;;;;;;;5042158;28;20555;-85
2021/05/28 12:50:25;;;;;;;2.67;2.58;;;;;;;;;;5035390;28;20177;-85
2021/05/28 12:52:56;;;;;;;2.83;2.67;;;;;;;;;;5043080;28;20638;-85
2021/05/28 12:55:34;;;;;;;2.40;2.30;;;;;;;;;;5055363;28;20176;-85
2021/05/28 12:58:00;;;;;;;2.63;2.50;;;;;;;;;;5055423;28;20195;-85
2021/05/28 13:00:33;;;;;;;3.83;2.85;;;;;;;;;;5054977;28;20172;-85
2021/05/28 13:02:59;;;;;;;3.30;3.00;;;;;;;;;;5055235;28;20179;-86
2021/05/28 13:05:32;;;;;;;3.42;2.63;;;;;;;;;;5053890;28;20186;-85
2021/05/28 13:10:55;;;;;;;2.65;2.50;;;;;;;;;;4982122;28;20319;-83
2021/05/28 13:13:24;;;;;;;2.70;2.60;;;;;;;;;;4959265;28;20465;-83
2021/05/28 13:15:51;;;;;;;2.88;2.45;;;;;;;;;;4976241;28;20272;-84
2021/05/28 13:18:17;;;;;;;2.10;2.00;;;;;;;;;;4973473;28;20185;-83
2021/05/28 13:20:43;;;;;;;1.80;1.70;;;;;;;;;;4974519;28;20554;-84
2021/05/28 13:23:22;;;;;;;2.30;2.20;;;;;;;;;;4975648;28;20187;-84
2021/05/28 13:25:48;;;;;;;2.22;2.13;;;;;;;;;;4975462;28;20182;-84
2021/05/28 13:28:23;;;;;;;2.40;2.30;;;;;;;;;;4958980;28;20194;-83
2021/05/28 13:30:54;;;;;;;2.28;2.17;;;;;;;;;;4974179;28;20200;-84
2021/05/28 13:33:22;;;;;;;2.20;2.10;;;;;;;;;;4975030;28;20194;-83
2021/05/28 13:35:48;;;;;;;2.75;2.53;;;;;;;;;;4976698;28;20253;-83
2021/05/28 13:38:14;;;;;;;2.55;2.45;;;;;;;;;;4976173;28;20229;-83
2021/05/28 13:40:41;;;;;;;3.50;2.50;;;;;;;;;;4984110;28;20167;-84
2021/05/28 13:43:07;;;;;;;2.70;2.47;;;;;;;;;;4999724;28;20226;-84
2021/05/28 13:45:33;;;;;;;2.90;2.70;;;;;;;;;;4999780;28;20171;-84
2021/05/28 13:47:58;;;;;;;2.92;2.70;;;;;;;;;;4996057;28;20171;-83
2021/05/28 13:50:24;;;;;;;3.10;2.83;;;;;;;;;;4991569;28;20183;-83
2021/05/28 13:52:52;;;;;;;2.70;2.50;;;;;;;;;;4996283;28;20241;-84
2021/05/28 13:55:18;;;;;;;4.63;2.58;;;;;;;;;;4997449;28;20180;-83
2021/05/28 13:57:43;;;;;;;3.80;2.60;;;;;;;;;;4994920;28;20170;-83
2021/05/28 14:00:10;;;;;;;3.77;2.80;;;;;;;;;;4994751;28;20180;-83
2021/05/28 14:02:37;;;;;;;7.93;3.00;;;;;;;;;;4977891;28;20679;-84
2021/05/28 14:05:02;;;;;;;2.78;2.58;;;;;;;;;;4975439;28;20174;-83
2021/05/28 14:07:28;;;;;;;5.65;2.85;;;;;;;;;;4974907;28;20171;-83
2021/05/28 14:09:53;;;;;;;5.57;2.70;;;;;;;;;;4975208;28;20229;-83
2021/05/28 14:12:20;;;;;;;3.63;2.50;;;;;;;;;;4974701;28;20213;-83
2021/05/28 14:14:46;;;;;;;2.20;2.10;;;;;;;;;;4974531;28;20216;-83
2021/05/28 14:17:12;;;;;;;2.90;2.70;;;;;;;;;;4973970;28;20210;-82
2021/05/28 14:19:37;;;;;;;2.40;2.30;;;;;;;;;;4974747;28;20179;-83
2021/05/28 14:22:02;;;;;;;3.93;2.70;;;;;;;;;;4974950;28;20209;-84
2021/05/28 14:24:28;;;;;;;2.77;2.50;;;;;;;;;;4973403;28;20190;-82
2021/05/28 14:26:53;;;;;;;3.07;2.47;;;;;;;;;;4974565;28;20170;-82
2021/05/28 14:29:18;;;;;;;2.70;2.50;;;;;;;;;;4974721;28;20310;-83
2021/05/28 14:31:44;;;;;;;3.73;2.70;;;;;;;;;;4973509;28;20197;-83
2021/05/28 14:34:09;;;;;;;2.57;2.47;;;;;;;;;;4974455;28;20201;-83
2021/05/28 14:36:35;;;;;;;2.73;2.30;;;;;;;;;;4980040;28;20162;-84
2021/05/28 14:39:06;;;;;;;2.30;2.20;;;;;;;;;;4981227;28;20167;-84
2021/05/28 14:41:32;;;;;;;2.70;2.50;;;;;;;;;;4975667;28;20332;-84
2021/05/28 14:43:57;;;;;;;4.13;2.77;;;;;;;;;;4961931;29;20654;-84